Huvudsida
METAR-TAF:

METAR-TAF

Flygplatser :

Oban Airport

Oban, Skottland

latitud: 56-27-49N, longitud: 5-24-00W, höjd: 7 m

Aktuellt väderrapport

Denna rapport gjordes för 10 timmar och 4 minuter sedan, klockan 14:50 UTC
Vind 13 kt från sydost
Temperatur 22°C
Fuktighet 31%
Tryck 1003 hPa
Sikt 10 km eller mer
Inga moln under 1 500 m eller inga cumulonimbus

METAR: EGEO 221450Z 14013KT CAVOK 22/04 Q1003

Tid: 01:54 (00:54 UTC)

Väderprognos

Denna rapport gjordes för 10 timmar och 53 minuter sedan, klockan 14:01 UTC
Prognos gäller från 22 kl. 15 UTC till 22 kl. 17 UTC
Vind 9 kt från sydost
Sikt 10 km eller mer
Inga moln under 1 500 m eller inga cumulonimbus
Temporärt
från 22 kl. 15 UTC till 22 kl. 17 UTC
Vind 15 kt från syd/sydost i byarna ända upp till 25 kt

TAF: EGEO 221401Z 2215/2217 13009KT CAVOK TEMPO 2215/2217 16015G25KT

Aktuella väderrapporter och prognoser från 4000 flygplatser (METAR- och TAF-rapporter).

De tillgängliga stationerna syns som gula och röda prickar på kartan.

För musen över prickarna för att se namnen på stationerna.

Klicka sedan för att få väderrapporter och prognoser.

För att ändra kartan: Klicka på de gröna knapparna med ett svart kors på för att zooma in; den gröna knappen med ett streck på för att zooma ut; eller på de gröna pilarna för angränsande kartor.


METAR-TAF: